Dobrush, Belarus
Current Conditions -  °F | °C
As of 10:00 PM on Sunday 21 Dec 2014 (Local Time) from UMGG Reporting Station
Clear Clear  
Wind Chill: 25°   Ceiling: Unl
Heat Index: 34°   Visibility: 6mi
Dew Point: 30°   Wind: 11mph
Humidity: 87%   Direction: 250°WSW
Pressure: 29.77"   Gusts: NA
Location:  52.42°N, 31.32°E
Report Text: UMGG 212000Z 25005MPS CAVOK 01/M01 Q1008 R28/690250 NOSIG
Loading
Personal Weather Stations






























Interactive Weather Map New forecast layout! Learn more

10-Day Weather Forecast

Advertisements
Track Severe Weather on mobile